sensor_id;sensor_type;location;lat;lon;timestamp;pressure;altitude;pressure_sealevel;temperature;humidity
59951;BME280;45812;53.540;9.774;2023-05-19T00:00:30;102854.47;;;12.19;60.44
59951;BME280;45812;53.540;9.774;2023-05-19T00:02:55;102845.97;;;12.13;60.93
59951;BME280;45812;53.540;9.774;2023-05-19T00:05:21;102847.22;;;12.09;61.42
59951;BME280;45812;53.540;9.774;2023-05-19T00:07:48;102849.97;;;12.08;61.59
59951;BME280;45812;53.540;9.774;2023-05-19T00:10:16;102843.78;;;12.07;61.62
59951;BME280;45812;53.540;9.774;2023-05-19T00:12:42;102851.06;;;12.05;62.15
59951;BME280;45812;53.540;9.774;2023-05-19T00:15:08;102848.66;;;12.02;62.47
59951;BME280;45812;53.540;9.774;2023-05-19T00:17:34;102834.84;;;11.97;62.50
59951;BME280;45812;53.540;9.774;2023-05-19T00:20:01;102842.84;;;11.97;62.65
59951;BME280;45812;53.540;9.774;2023-05-19T00:22:31;102847.19;;;11.98;62.81
59951;BME280;45812;53.540;9.774;2023-05-19T00:24:56;102846.47;;;11.96;62.72
59951;BME280;45812;53.540;9.774;2023-05-19T00:27:21;102844.78;;;11.95;62.71
59951;BME280;45812;53.540;9.774;2023-05-19T00:29:47;102842.13;;;11.95;63.30
59951;BME280;45812;53.540;9.774;2023-05-19T00:32:12;102845.75;;;11.94;63.07
59951;BME280;45812;53.540;9.774;2023-05-19T00:34:37;102839.56;;;11.94;63.26
59951;BME280;45812;53.540;9.774;2023-05-19T00:37:02;102839.69;;;11.92;62.77
59951;BME280;45812;53.540;9.774;2023-05-19T00:39:28;102833.72;;;11.89;63.06
59951;BME280;45812;53.540;9.774;2023-05-19T00:41:53;102837.38;;;11.88;63.04
59951;BME280;45812;53.540;9.774;2023-05-19T00:44:18;102832.16;;;11.86;63.80
59951;BME280;45812;53.540;9.774;2023-05-19T00:46:43;102826.94;;;11.85;64.01
59951;BME280;45812;53.540;9.774;2023-05-19T00:49:09;102835.06;;;11.83;63.80
59951;BME280;45812;53.540;9.774;2023-05-19T00:51:34;102825.38;;;11.82;63.53
59951;BME280;45812;53.540;9.774;2023-05-19T00:54:01;102820.28;;;11.79;63.49
59951;BME280;45812;53.540;9.774;2023-05-19T00:56:26;102827.31;;;11.80;64.19
59951;BME280;45812;53.540;9.774;2023-05-19T00:58:51;102826.47;;;11.79;63.71
59951;BME280;45812;53.540;9.774;2023-05-19T01:01:17;102834.56;;;11.78;64.32
59951;BME280;45812;53.540;9.774;2023-05-19T01:03:45;102834.81;;;11.75;63.78
59951;BME280;45812;53.540;9.774;2023-05-19T01:06:11;102835.25;;;11.69;64.43
59951;BME280;45812;53.540;9.774;2023-05-19T01:08:37;102832.97;;;11.64;64.33
59951;BME280;45812;53.540;9.774;2023-05-19T01:11:04;102837.81;;;11.59;64.53
59951;BME280;45812;53.540;9.774;2023-05-19T01:13:30;102841.56;;;11.57;64.63
59951;BME280;45812;53.540;9.774;2023-05-19T01:16:12;102839.25;;;11.52;64.81
59951;BME280;45812;53.540;9.774;2023-05-19T01:18:51;102833.31;;;11.48;64.74
59951;BME280;45812;53.540;9.774;2023-05-19T01:21:50;102834.50;;;11.44;65.22
59951;BME280;45812;53.540;9.774;2023-05-19T01:24:31;102840.94;;;11.42;65.28
59951;BME280;45812;53.540;9.774;2023-05-19T01:27:20;102837.78;;;11.37;65.63
59951;BME280;45812;53.540;9.774;2023-05-19T01:32:49;102838.25;;;11.31;66.35
59951;BME280;45812;53.540;9.774;2023-05-19T01:35:17;102828.78;;;11.27;66.41
59951;BME280;45812;53.540;9.774;2023-05-19T01:37:44;102834.22;;;11.25;66.74
59951;BME280;45812;53.540;9.774;2023-05-19T01:40:10;102842.47;;;11.22;67.05
59951;BME280;45812;53.540;9.774;2023-05-19T01:42:37;102837.13;;;11.22;67.80
59951;BME280;45812;53.540;9.774;2023-05-19T01:45:05;102834.47;;;11.22;67.94
59951;BME280;45812;53.540;9.774;2023-05-19T01:47:35;102839.94;;;11.20;67.97
59951;BME280;45812;53.540;9.774;2023-05-19T01:50:02;102840.78;;;11.21;68.12
59951;BME280;45812;53.540;9.774;2023-05-19T01:52:28;102847.06;;;11.20;68.23
59951;BME280;45812;53.540;9.774;2023-05-19T01:54:53;102846.34;;;11.18;68.16
59951;BME280;45812;53.540;9.774;2023-05-19T02:03:07;102859.66;;;11.18;68.29
59951;BME280;45812;53.540;9.774;2023-05-19T02:05:44;102849.13;;;11.16;68.10
59951;BME280;45812;53.540;9.774;2023-05-19T02:08:41;102842.94;;;11.16;68.82
59951;BME280;45812;53.540;9.774;2023-05-19T02:11:13;102853.69;;;11.14;69.32
59951;BME280;45812;53.540;9.774;2023-05-19T02:13:44;102853.81;;;11.13;68.86
59951;BME280;45812;53.540;9.774;2023-05-19T02:16:13;102850.41;;;11.11;68.80
59951;BME280;45812;53.540;9.774;2023-05-19T02:18:40;102847.03;;;11.09;69.22
59951;BME280;45812;53.540;9.774;2023-05-19T02:21:09;102842.06;;;11.04;69.05
59951;BME280;45812;53.540;9.774;2023-05-19T02:23:38;102835.13;;;11.02;69.95
59951;BME280;45812;53.540;9.774;2023-05-19T02:26:03;102839.00;;;10.98;70.39
59951;BME280;45812;53.540;9.774;2023-05-19T02:28:28;102836.53;;;10.95;71.10
59951;BME280;45812;53.540;9.774;2023-05-19T02:30:54;102837.75;;;10.90;71.07
59951;BME280;45812;53.540;9.774;2023-05-19T02:33:19;102830.00;;;10.87;71.84
59951;BME280;45812;53.540;9.774;2023-05-19T02:35:44;102826.84;;;10.82;71.58
59951;BME280;45812;53.540;9.774;2023-05-19T02:38:09;102829.50;;;10.82;71.75
59951;BME280;45812;53.540;9.774;2023-05-19T02:40:34;102833.25;;;10.80;72.41
59951;BME280;45812;53.540;9.774;2023-05-19T02:43:00;102838.66;;;10.78;72.73
59951;BME280;45812;53.540;9.774;2023-05-19T02:45:25;102828.22;;;10.75;72.98
59951;BME280;45812;53.540;9.774;2023-05-19T02:47:52;102829.19;;;10.74;72.92
59951;BME280;45812;53.540;9.774;2023-05-19T02:50:17;102831.00;;;10.74;73.28
59951;BME280;45812;53.540;9.774;2023-05-19T02:52:43;102826.03;;;10.69;73.31
59951;BME280;45812;53.540;9.774;2023-05-19T02:55:08;102825.19;;;10.69;73.95
59951;BME280;45812;53.540;9.774;2023-05-19T02:57:33;102827.84;;;10.69;73.93
59951;BME280;45812;53.540;9.774;2023-05-19T02:59:59;102827.00;;;10.68;74.26
59951;BME280;45812;53.540;9.774;2023-05-19T03:02:24;102827.97;;;10.67;74.72
59951;BME280;45812;53.540;9.774;2023-05-19T03:04:50;102821.78;;;10.67;74.91
59951;BME280;45812;53.540;9.774;2023-05-19T03:07:15;102820.47;;;10.72;74.68
59951;BME280;45812;53.540;9.774;2023-05-19T03:09:41;102828.13;;;10.77;74.13
59951;BME280;45812;53.540;9.774;2023-05-19T03:12:06;102820.97;;;10.77;74.75
59951;BME280;45812;53.540;9.774;2023-05-19T03:14:33;102832.41;;;10.79;74.42
59951;BME280;45812;53.540;9.774;2023-05-19T03:16:58;102826.09;;;10.80;75.10
59951;BME280;45812;53.540;9.774;2023-05-19T03:19:24;102822.47;;;10.81;74.73
59951;BME280;45812;53.540;9.774;2023-05-19T03:21:50;102817.88;;;10.83;75.42
59951;BME280;45812;53.540;9.774;2023-05-19T03:24:15;102815.22;;;10.83;75.20
59951;BME280;45812;53.540;9.774;2023-05-19T03:26:41;102812.19;;;10.88;75.34
59951;BME280;45812;53.540;9.774;2023-05-19T03:29:06;102803.97;;;10.91;74.82
59951;BME280;45812;53.540;9.774;2023-05-19T03:31:32;102814.38;;;10.94;74.73
59951;BME280;45812;53.540;9.774;2023-05-19T03:33:57;102813.28;;;10.97;74.82
59951;BME280;45812;53.540;9.774;2023-05-19T03:36:22;102814.19;;;10.97;74.50
59951;BME280;45812;53.540;9.774;2023-05-19T03:38:48;102817.47;;;11.01;75.04
59951;BME280;45812;53.540;9.774;2023-05-19T03:41:13;102817.94;;;11.06;74.68
59951;BME280;45812;53.540;9.774;2023-05-19T03:43:38;102822.06;;;11.10;74.80
59951;BME280;45812;53.540;9.774;2023-05-19T03:46:04;102820.13;;;11.12;74.73
59951;BME280;45812;53.540;9.774;2023-05-19T03:48:29;102828.84;;;11.14;74.60
59951;BME280;45812;53.540;9.774;2023-05-19T03:50:54;102817.13;;;11.16;74.75
59951;BME280;45812;53.540;9.774;2023-05-19T03:53:20;102816.28;;;11.16;74.35
59951;BME280;45812;53.540;9.774;2023-05-19T03:55:45;102822.13;;;11.21;74.15
59951;BME280;45812;53.540;9.774;2023-05-19T03:58:11;102827.19;;;11.24;73.64
59951;BME280;45812;53.540;9.774;2023-05-19T04:00:38;102835.94;;;11.26;73.97
59951;BME280;45812;53.540;9.774;2023-05-19T04:03:04;102832.91;;;11.31;74.10
59951;BME280;45812;53.540;9.774;2023-05-19T04:05:29;102842.59;;;11.32;73.87
59951;BME280;45812;53.540;9.774;2023-05-19T04:07:54;102842.28;;;11.36;73.61
59951;BME280;45812;53.540;9.774;2023-05-19T04:10:20;102844.56;;;11.41;73.07
59951;BME280;45812;53.540;9.774;2023-05-19T04:12:45;102840.22;;;11.40;72.98
59951;BME280;45812;53.540;9.774;2023-05-19T04:15:11;102840.56;;;11.46;73.09
59951;BME280;45812;53.540;9.774;2023-05-19T04:17:37;102846.41;;;11.51;73.01
59951;BME280;45812;53.540;9.774;2023-05-19T04:20:03;102838.19;;;11.55;72.91
59951;BME280;45812;53.540;9.774;2023-05-19T04:22:31;102836.84;;;11.60;73.11
59951;BME280;45812;53.540;9.774;2023-05-19T04:24:56;102838.41;;;11.63;72.95
59951;BME280;45812;53.540;9.774;2023-05-19T04:27:22;102843.50;;;11.66;72.21
59951;BME280;45812;53.540;9.774;2023-05-19T04:29:47;102844.25;;;11.68;72.58
59951;BME280;45812;53.540;9.774;2023-05-19T04:32:14;102840.59;;;11.69;72.43
59951;BME280;45812;53.540;9.774;2023-05-19T04:34:42;102847.28;;;11.74;72.90
59951;BME280;45812;53.540;9.774;2023-05-19T04:37:12;102851.44;;;11.78;72.36
59951;BME280;45812;53.540;9.774;2023-05-19T04:39:41;102842.47;;;11.79;71.93
59951;BME280;45812;53.540;9.774;2023-05-19T04:42:08;102846.84;;;11.80;72.03
59951;BME280;45812;53.540;9.774;2023-05-19T04:44:35;102837.75;;;11.83;71.54
59951;BME280;45812;53.540;9.774;2023-05-19T04:47:02;102837.50;;;11.86;71.35
59951;BME280;45812;53.540;9.774;2023-05-19T04:49:27;102843.78;;;11.85;71.69
59951;BME280;45812;53.540;9.774;2023-05-19T04:51:53;102836.63;;;11.86;71.92
59951;BME280;45812;53.540;9.774;2023-05-19T04:54:18;102826.94;;;11.85;71.94
59951;BME280;45812;53.540;9.774;2023-05-19T04:56:43;102838.34;;;11.87;72.36
59951;BME280;45812;53.540;9.774;2023-05-19T04:59:09;102839.91;;;11.89;72.22
59951;BME280;45812;53.540;9.774;2023-05-19T05:01:35;102838.97;;;11.90;71.89
59951;BME280;45812;53.540;9.774;2023-05-19T05:04:04;102844.06;;;11.93;71.63
59951;BME280;45812;53.540;9.774;2023-05-19T05:06:30;102850.13;;;11.95;72.00
59951;BME280;45812;53.540;9.774;2023-05-19T05:08:55;102850.84;;;11.97;71.74
59951;BME280;45812;53.540;9.774;2023-05-19T05:11:21;102849.50;;;12.03;72.09
59951;BME280;45812;53.540;9.774;2023-05-19T05:13:46;102839.19;;;12.09;72.30
59951;BME280;45812;53.540;9.774;2023-05-19T05:16:12;102835.56;;;12.10;72.12
59951;BME280;45812;53.540;9.774;2023-05-19T05:18:38;102840.66;;;12.13;72.61
59951;BME280;45812;53.540;9.774;2023-05-19T05:21:04;102844.63;;;12.19;72.55
59951;BME280;45812;53.540;9.774;2023-05-19T05:23:30;102843.16;;;12.26;72.26
59951;BME280;45812;53.540;9.774;2023-05-19T05:25:56;102841.72;;;12.33;72.33
59951;BME280;45812;53.540;9.774;2023-05-19T05:28:21;102846.28;;;12.42;71.96
59951;BME280;45812;53.540;9.774;2023-05-19T05:30:46;102842.16;;;12.50;71.56
59951;BME280;45812;53.540;9.774;2023-05-19T05:33:13;102838.00;;;12.57;70.98
59951;BME280;45812;53.540;9.774;2023-05-19T05:35:39;102840.06;;;12.64;70.98
59951;BME280;45812;53.540;9.774;2023-05-19T05:38:04;102843.19;;;12.69;70.40
59951;BME280;45812;53.540;9.774;2023-05-19T05:40:29;102843.41;;;12.78;69.90
59951;BME280;45812;53.540;9.774;2023-05-19T05:42:55;102851.63;;;12.86;69.64
59951;BME280;45812;53.540;9.774;2023-05-19T05:45:24;102847.22;;;12.96;69.62
59951;BME280;45812;53.540;9.774;2023-05-19T05:47:50;102843.06;;;13.03;68.95
59951;BME280;45812;53.540;9.774;2023-05-19T05:50:16;102850.03;;;13.15;68.59
59951;BME280;45812;53.540;9.774;2023-05-19T05:52:45;102847.34;;;13.26;68.58
59951;BME280;45812;53.540;9.774;2023-05-19T05:55:11;102843.72;;;13.37;68.46
59951;BME280;45812;53.540;9.774;2023-05-19T05:57:37;102857.63;;;13.52;67.84
59951;BME280;45812;53.540;9.774;2023-05-19T06:00:03;102859.25;;;13.64;67.68
59951;BME280;45812;53.540;9.774;2023-05-19T06:02:34;102858.06;;;13.78;68.40
59951;BME280;45812;53.540;9.774;2023-05-19T06:05:00;102860.50;;;13.90;67.35
59951;BME280;45812;53.540;9.774;2023-05-19T06:07:26;102848.72;;;14.03;67.30
59951;BME280;45812;53.540;9.774;2023-05-19T06:09:51;102850.34;;;14.15;66.38
59951;BME280;45812;53.540;9.774;2023-05-19T06:12:16;102853.16;;;14.23;64.19
59951;BME280;45812;53.540;9.774;2023-05-19T06:14:42;102852.59;;;14.29;62.80
59951;BME280;45812;53.540;9.774;2023-05-19T06:17:07;102846.03;;;14.33;62.16
59951;BME280;45812;53.540;9.774;2023-05-19T06:19:32;102855.47;;;14.37;61.92
59951;BME280;45812;53.540;9.774;2023-05-19T06:21:57;102848.41;;;14.36;62.43
59951;BME280;45812;53.540;9.774;2023-05-19T06:24:23;102863.22;;;14.40;62.40
59951;BME280;45812;53.540;9.774;2023-05-19T06:26:48;102861.25;;;14.42;61.13
59951;BME280;45812;53.540;9.774;2023-05-19T06:29:13;102855.19;;;14.40;61.64
59951;BME280;45812;53.540;9.774;2023-05-19T06:31:39;102854.19;;;14.41;60.94
59951;BME280;45812;53.540;9.774;2023-05-19T06:34:04;102848.84;;;14.41;60.76
59951;BME280;45812;53.540;9.774;2023-05-19T06:36:29;102850.44;;;14.44;60.53
59951;BME280;45812;53.540;9.774;2023-05-19T06:38:55;102847.31;;;14.48;60.67
59951;BME280;45812;53.540;9.774;2023-05-19T06:41:20;102854.53;;;14.48;60.43
59951;BME280;45812;53.540;9.774;2023-05-19T06:43:45;102851.84;;;14.48;59.65
59951;BME280;45812;53.540;9.774;2023-05-19T06:46:11;102849.88;;;14.50;58.57
59951;BME280;45812;53.540;9.774;2023-05-19T06:48:37;102856.66;;;14.54;59.40
59951;BME280;45812;53.540;9.774;2023-05-19T06:51:02;102847.34;;;14.58;59.46
59951;BME280;45812;53.540;9.774;2023-05-19T06:53:27;102844.81;;;14.57;60.07
59951;BME280;45812;53.540;9.774;2023-05-19T06:55:53;102836.78;;;14.57;57.68
59951;BME280;45812;53.540;9.774;2023-05-19T06:58:18;102855.53;;;14.57;57.66
59951;BME280;45812;53.540;9.774;2023-05-19T07:00:43;102857.22;;;14.58;58.88
59951;BME280;45812;53.540;9.774;2023-05-19T07:03:09;102857.38;;;14.56;57.41
59951;BME280;45812;53.540;9.774;2023-05-19T07:05:34;102858.38;;;14.55;57.29
59951;BME280;45812;53.540;9.774;2023-05-19T07:08:00;102853.28;;;14.62;57.65
59951;BME280;45812;53.540;9.774;2023-05-19T07:10:26;102857.66;;;14.63;58.50
59951;BME280;45812;53.540;9.774;2023-05-19T07:12:51;102862.03;;;14.64;59.01
59951;BME280;45812;53.540;9.774;2023-05-19T07:15:16;102859.91;;;14.67;57.79
59951;BME280;45812;53.540;9.774;2023-05-19T07:17:41;102853.56;;;14.68;57.30
59951;BME280;45812;53.540;9.774;2023-05-19T07:20:07;102849.63;;;14.72;58.33
59951;BME280;45812;53.540;9.774;2023-05-19T07:22:36;102854.84;;;14.74;58.26
59951;BME280;45812;53.540;9.774;2023-05-19T07:25:02;102854.84;;;14.74;59.15
59951;BME280;45812;53.540;9.774;2023-05-19T07:27:27;102851.19;;;14.75;57.52
59951;BME280;45812;53.540;9.774;2023-05-19T07:29:53;102857.53;;;14.74;57.77
59951;BME280;45812;53.540;9.774;2023-05-19T07:32:18;102858.53;;;14.73;56.30
59951;BME280;45812;53.540;9.774;2023-05-19T07:34:43;102856.00;;;14.71;56.95
59951;BME280;45812;53.540;9.774;2023-05-19T07:37:08;102866.28;;;14.76;57.89
59951;BME280;45812;53.540;9.774;2023-05-19T07:39:34;102856.97;;;14.80;57.48
59951;BME280;45812;53.540;9.774;2023-05-19T07:42:00;102863.75;;;14.84;57.74
59951;BME280;45812;53.540;9.774;2023-05-19T07:44:25;102868.56;;;14.90;57.81
59951;BME280;45812;53.540;9.774;2023-05-19T07:46:51;102866.72;;;15.00;57.36
59951;BME280;45812;53.540;9.774;2023-05-19T07:49:18;102863.91;;;15.11;56.31
59951;BME280;45812;53.540;9.774;2023-05-19T07:51:43;102857.50;;;15.22;55.45
59951;BME280;45812;53.540;9.774;2023-05-19T07:54:08;102859.22;;;15.33;54.42
59951;BME280;45812;53.540;9.774;2023-05-19T07:56:33;102852.97;;;15.42;54.38
59951;BME280;45812;53.540;9.774;2023-05-19T07:58:59;102848.97;;;15.56;54.71
59951;BME280;45812;53.540;9.774;2023-05-19T08:01:24;102859.00;;;15.73;54.22
59951;BME280;45812;53.540;9.774;2023-05-19T08:03:50;102854.00;;;15.88;55.20
59951;BME280;45812;53.540;9.774;2023-05-19T08:06:15;102861.00;;;16.08;54.67
59951;BME280;45812;53.540;9.774;2023-05-19T08:08:40;102851.81;;;16.28;54.23
59951;BME280;45812;53.540;9.774;2023-05-19T08:11:06;102847.03;;;16.50;54.11
59951;BME280;45812;53.540;9.774;2023-05-19T08:13:31;102845.06;;;16.70;53.56
59951;BME280;45812;53.540;9.774;2023-05-19T08:15:57;102849.44;;;16.88;53.88
59951;BME280;45812;53.540;9.774;2023-05-19T08:18:24;102843.91;;;17.08;52.38
59951;BME280;45812;53.540;9.774;2023-05-19T08:20:49;102849.25;;;17.25;51.09
59951;BME280;45812;53.540;9.774;2023-05-19T08:23:14;102841.63;;;17.39;48.68
59951;BME280;45812;53.540;9.774;2023-05-19T08:25:40;102849.50;;;17.58;49.49
59951;BME280;45812;53.540;9.774;2023-05-19T08:28:05;102844.22;;;17.74;48.49
59951;BME280;45812;53.540;9.774;2023-05-19T08:30:31;102838.09;;;17.90;49.56
59951;BME280;45812;53.540;9.774;2023-05-19T08:32:56;102835.63;;;18.05;46.58
59951;BME280;45812;53.540;9.774;2023-05-19T08:35:21;102841.56;;;18.16;46.30
59951;BME280;45812;53.540;9.774;2023-05-19T08:37:46;102836.88;;;18.27;46.00
59951;BME280;45812;53.540;9.774;2023-05-19T08:40:16;102829.66;;;18.35;44.85
59951;BME280;45812;53.540;9.774;2023-05-19T08:42:43;102832.91;;;18.47;44.33
59951;BME280;45812;53.540;9.774;2023-05-19T08:45:08;102823.16;;;18.62;44.41
59951;BME280;45812;53.540;9.774;2023-05-19T08:47:34;102819.97;;;18.75;44.67
59951;BME280;45812;53.540;9.774;2023-05-19T08:50:04;102816.28;;;18.92;45.04
59951;BME280;45812;53.540;9.774;2023-05-19T08:53:00;102832.31;;;19.10;44.00
59951;BME280;45812;53.540;9.774;2023-05-19T08:55:32;102815.06;;;19.27;44.26
59951;BME280;45812;53.540;9.774;2023-05-19T08:58:00;102816.41;;;19.40;43.48
59951;BME280;45812;53.540;9.774;2023-05-19T09:00:28;102814.88;;;19.53;42.71
59951;BME280;45812;53.540;9.774;2023-05-19T09:02:53;102809.78;;;19.66;42.14
59951;BME280;45812;53.540;9.774;2023-05-19T09:05:19;102809.59;;;19.76;42.28
59951;BME280;45812;53.540;9.774;2023-05-19T09:07:44;102805.34;;;19.82;41.75
59951;BME280;45812;53.540;9.774;2023-05-19T09:10:10;102799.03;;;19.89;41.42
59951;BME280;45812;53.540;9.774;2023-05-19T09:12:44;102809.19;;;19.95;40.80
59951;BME280;45812;53.540;9.774;2023-05-19T09:15:11;102801.50;;;20.07;40.91
59951;BME280;45812;53.540;9.774;2023-05-19T09:17:39;102800.94;;;20.20;40.29
59951;BME280;45812;53.540;9.774;2023-05-19T09:20:05;102804.78;;;20.25;40.50
59951;BME280;45812;53.540;9.774;2023-05-19T09:22:40;102801.56;;;20.30;40.88
59951;BME280;45812;53.540;9.774;2023-05-19T09:25:05;102797.09;;;20.37;40.84
59951;BME280;45812;53.540;9.774;2023-05-19T09:27:41;102798.09;;;20.44;39.56
59951;BME280;45812;53.540;9.774;2023-05-19T09:30:07;102792.19;;;20.49;41.28
59951;BME280;45812;53.540;9.774;2023-05-19T09:32:33;102794.69;;;20.50;40.47
59951;BME280;45812;53.540;9.774;2023-05-19T09:35:01;102798.78;;;20.46;39.76
59951;BME280;45812;53.540;9.774;2023-05-19T09:37:27;102802.34;;;20.47;40.88
59951;BME280;45812;53.540;9.774;2023-05-19T09:39:53;102794.50;;;20.52;39.86
59951;BME280;45812;53.540;9.774;2023-05-19T09:42:23;102790.19;;;20.66;38.48
59951;BME280;45812;53.540;9.774;2023-05-19T09:44:58;102781.25;;;20.80;37.88
59951;BME280;45812;53.540;9.774;2023-05-19T09:47:24;102778.97;;;20.92;37.39
59951;BME280;45812;53.540;9.774;2023-05-19T09:49:49;102780.13;;;21.12;37.65
59951;BME280;45812;53.540;9.774;2023-05-19T09:52:16;102779.06;;;21.51;37.87
59951;BME280;45812;53.540;9.774;2023-05-19T09:54:42;102780.56;;;21.83;38.92
59951;BME280;45812;53.540;9.774;2023-05-19T09:57:08;102773.59;;;22.10;38.20
59951;BME280;45812;53.540;9.774;2023-05-19T09:59:34;102767.00;;;22.33;36.56
59951;BME280;45812;53.540;9.774;2023-05-19T10:02:00;102772.59;;;22.75;34.69
59951;BME280;45812;53.540;9.774;2023-05-19T10:04:27;102769.03;;;23.23;34.71
59951;BME280;45812;53.540;9.774;2023-05-19T10:06:54;102763.25;;;23.68;34.61
59951;BME280;45812;53.540;9.774;2023-05-19T10:09:24;102764.25;;;24.14;33.22
59951;BME280;45812;53.540;9.774;2023-05-19T10:11:51;102757.69;;;24.63;32.88
59951;BME280;45812;53.540;9.774;2023-05-19T10:14:18;102750.97;;;25.19;31.19
59951;BME280;45812;53.540;9.774;2023-05-19T10:16:49;102748.69;;;25.80;30.84
59951;BME280;45812;53.540;9.774;2023-05-19T10:19:15;102749.19;;;26.47;28.51
59951;BME280;45812;53.540;9.774;2023-05-19T10:21:41;102747.91;;;26.99;27.28
59951;BME280;45812;53.540;9.774;2023-05-19T10:24:06;102745.22;;;27.54;27.58
59951;BME280;45812;53.540;9.774;2023-05-19T10:26:32;102741.47;;;28.15;26.77
59951;BME280;45812;53.540;9.774;2023-05-19T10:28:58;102732.44;;;28.80;25.11
59951;BME280;45812;53.540;9.774;2023-05-19T10:31:24;102738.28;;;29.30;25.25
59951;BME280;45812;53.540;9.774;2023-05-19T10:33:59;102736.22;;;29.89;23.64
59951;BME280;45812;53.540;9.774;2023-05-19T10:36:45;102734.06;;;30.65;22.95
59951;BME280;45812;53.540;9.774;2023-05-19T10:39:24;102733.69;;;31.55;21.23
59951;BME280;45812;53.540;9.774;2023-05-19T10:42:12;102725.03;;;32.44;20.15
59951;BME280;45812;53.540;9.774;2023-05-19T10:45:08;102736.03;;;33.24;20.79
59951;BME280;45812;53.540;9.774;2023-05-19T10:47:40;102720.91;;;34.04;20.41
59951;BME280;45812;53.540;9.774;2023-05-19T10:50:06;102722.50;;;35.07;18.74
59951;BME280;45812;53.540;9.774;2023-05-19T10:52:36;102727.94;;;36.26;17.31
59951;BME280;45812;53.540;9.774;2023-05-19T10:55:01;102717.91;;;37.17;16.66
59951;BME280;45812;53.540;9.774;2023-05-19T10:57:27;102726.13;;;37.70;15.47
59951;BME280;45812;53.540;9.774;2023-05-19T10:59:55;102724.47;;;38.25;14.51
59951;BME280;45812;53.540;9.774;2023-05-19T11:02:38;102724.00;;;38.97;14.39
59951;BME280;45812;53.540;9.774;2023-05-19T11:05:09;102715.41;;;39.48;13.74
59951;BME280;45812;53.540;9.774;2023-05-19T11:07:35;102722.69;;;40.08;12.90
59951;BME280;45812;53.540;9.774;2023-05-19T11:10:05;102717.91;;;40.53;11.80
59951;BME280;45812;53.540;9.774;2023-05-19T11:12:41;102705.03;;;38.99;13.19
59951;BME280;45812;53.540;9.774;2023-05-19T11:15:13;102704.94;;;37.93;15.19
59951;BME280;45812;53.540;9.774;2023-05-19T11:17:39;102702.22;;;38.25;14.32
59951;BME280;45812;53.540;9.774;2023-05-19T11:20:08;102698.81;;;39.43;13.63
59951;BME280;45812;53.540;9.774;2023-05-19T11:22:59;102702.09;;;41.28;12.21
59951;BME280;45812;53.540;9.774;2023-05-19T11:25:40;102691.38;;;42.42;10.96
59951;BME280;45812;53.540;9.774;2023-05-19T11:28:06;102690.69;;;43.21;10.39
59951;BME280;45812;53.540;9.774;2023-05-19T11:30:31;102689.50;;;43.73;10.14
59951;BME280;45812;53.540;9.774;2023-05-19T11:32:56;102687.50;;;44.27;9.82
59951;BME280;45812;53.540;9.774;2023-05-19T11:35:23;102681.31;;;44.58;9.24
59951;BME280;45812;53.540;9.774;2023-05-19T11:37:49;102681.44;;;44.98;9.44
59951;BME280;45812;53.540;9.774;2023-05-19T11:40:17;102671.72;;;45.61;8.90
59951;BME280;45812;53.540;9.774;2023-05-19T11:42:45;102676.00;;;45.98;8.76
59951;BME280;45812;53.540;9.774;2023-05-19T11:45:10;102677.47;;;45.64;8.73
59951;BME280;45812;53.540;9.774;2023-05-19T11:47:36;102686.72;;;45.00;9.08
59951;BME280;45812;53.540;9.774;2023-05-19T11:50:01;102680.50;;;45.07;9.12
59951;BME280;45812;53.540;9.774;2023-05-19T11:52:26;102687.28;;;44.45;10.11
59951;BME280;45812;53.540;9.774;2023-05-19T11:54:52;102674.75;;;44.30;10.09
59951;BME280;45812;53.540;9.774;2023-05-19T11:57:18;102680.16;;;44.59;8.73
59951;BME280;45812;53.540;9.774;2023-05-19T11:59:43;102668.16;;;45.76;8.10
59951;BME280;45812;53.540;9.774;2023-05-19T12:04:37;102671.53;;;44.19;8.66
59951;BME280;45812;53.540;9.774;2023-05-19T12:07:03;102679.00;;;42.60;10.25
59951;BME280;45812;53.540;9.774;2023-05-19T12:09:28;102668.44;;;41.33;10.27
59951;BME280;45812;53.540;9.774;2023-05-19T12:11:53;102671.34;;;41.19;10.73
59951;BME280;45812;53.540;9.774;2023-05-19T12:14:19;102668.25;;;41.98;10.37
59951;BME280;45812;53.540;9.774;2023-05-19T12:16:44;102664.53;;;43.38;9.53
59951;BME280;45812;53.540;9.774;2023-05-19T12:19:09;102666.66;;;44.40;9.32
59951;BME280;45812;53.540;9.774;2023-05-19T12:21:35;102661.63;;;46.15;8.08
59951;BME280;45812;53.540;9.774;2023-05-19T12:24:00;102662.72;;;45.83;8.59
59951;BME280;45812;53.540;9.774;2023-05-19T12:26:26;102659.19;;;43.45;9.51
59951;BME280;45812;53.540;9.774;2023-05-19T12:28:51;102654.47;;;41.50;10.52
59951;BME280;45812;53.540;9.774;2023-05-19T12:31:18;102661.00;;;39.87;11.20
59951;BME280;45812;53.540;9.774;2023-05-19T12:33:47;102652.81;;;38.50;12.25
59951;BME280;45812;53.540;9.774;2023-05-19T12:36:16;102654.16;;;38.52;12.59
59951;BME280;45812;53.540;9.774;2023-05-19T12:38:42;102646.91;;;41.85;10.30
59951;BME280;45812;53.540;9.774;2023-05-19T12:41:10;102645.47;;;44.43;9.14
59951;BME280;45812;53.540;9.774;2023-05-19T12:43:35;102638.63;;;46.61;8.18
59951;BME280;45812;53.540;9.774;2023-05-19T12:46:11;102638.59;;;48.35;7.57
59951;BME280;45812;53.540;9.774;2023-05-19T12:48:42;102636.28;;;47.94;8.57
59951;BME280;45812;53.540;9.774;2023-05-19T12:51:08;102632.31;;;48.22;8.19
59951;BME280;45812;53.540;9.774;2023-05-19T12:53:34;102631.75;;;49.15;7.10
59951;BME280;45812;53.540;9.774;2023-05-19T12:55:59;102614.19;;;50.07;6.79
59951;BME280;45812;53.540;9.774;2023-05-19T12:58:24;102618.00;;;50.87;6.71
59951;BME280;45812;53.540;9.774;2023-05-19T13:00:49;102617.06;;;51.52;5.61